sensor_id;sensor_type;location;lat;lon;timestamp;pressure;altitude;pressure_sealevel;temperature;humidity
27685;BME280;46113;50.130;8.526;2022-09-09T04:15:38;99574.56;;;11.37;82.83
27685;BME280;46113;50.130;8.526;2022-09-09T04:18:05;99577.81;;;11.43;81.90
27685;BME280;46113;50.130;8.526;2022-09-09T04:20:32;99567.06;;;11.46;81.82
27685;BME280;46113;50.130;8.526;2022-09-09T04:22:59;99576.44;;;11.51;81.50
27685;BME280;46113;50.130;8.526;2022-09-09T04:25:26;99567.56;;;11.52;81.07
27685;BME280;46113;50.130;8.526;2022-09-09T04:27:54;99565.59;;;11.56;80.38
27685;BME280;46113;50.130;8.526;2022-09-09T04:30:21;99574.97;;;11.62;80.79
27685;BME280;46113;50.130;8.526;2022-09-09T04:32:47;99573.94;;;11.64;80.75
27685;BME280;46113;50.130;8.526;2022-09-09T04:35:14;99576.78;;;11.61;81.37
27685;BME280;46113;50.130;8.526;2022-09-09T04:38:08;99559.75;;;11.65;80.79
27685;BME280;46113;50.130;8.526;2022-09-09T04:40:36;99575.66;;;11.65;81.38
27685;BME280;46113;50.130;8.526;2022-09-09T04:43:03;99563.53;;;11.61;81.63
27685;BME280;46113;50.130;8.526;2022-09-09T04:45:31;99564.09;;;11.66;80.88
27685;BME280;46113;50.130;8.526;2022-09-09T04:47:58;99575.66;;;11.65;80.26
27685;BME280;46113;50.130;8.526;2022-09-09T04:50:24;99585.06;;;11.55;81.21
27685;BME280;46113;50.130;8.526;2022-09-09T04:53:00;99580.22;;;11.47;80.98
27685;BME280;46113;50.130;8.526;2022-09-09T04:55:28;99584.06;;;11.58;81.41
27685;BME280;46113;50.130;8.526;2022-09-09T04:57:54;99589.66;;;11.51;81.32
27685;BME280;46113;50.130;8.526;2022-09-09T05:00:21;99583.09;;;11.59;81.30
27685;BME280;46113;50.130;8.526;2022-09-09T05:02:48;99583.78;;;11.62;80.92
27685;BME280;46113;50.130;8.526;2022-09-09T05:05:15;99589.81;;;11.64;80.57
27685;BME280;46113;50.130;8.526;2022-09-09T05:07:42;99590.59;;;11.66;80.44
27685;BME280;46113;50.130;8.526;2022-09-09T05:10:11;99589.81;;;11.64;80.73
27685;BME280;46113;50.130;8.526;2022-09-09T05:12:40;99598.91;;;11.60;80.63
27685;BME280;46113;50.130;8.526;2022-09-09T05:15:08;99609.25;;;11.65;80.32
27685;BME280;46113;50.130;8.526;2022-09-09T05:17:36;99607.63;;;11.62;80.56
27685;BME280;46113;50.130;8.526;2022-09-09T05:20:03;99598.06;;;11.60;80.06
27685;BME280;46113;50.130;8.526;2022-09-09T05:22:35;99611.13;;;11.63;80.53
27685;BME280;46113;50.130;8.526;2022-09-09T05:25:03;99618.97;;;11.64;79.52
27685;BME280;46113;50.130;8.526;2022-09-09T05:27:29;99612.56;;;11.68;79.83
27685;BME280;46113;50.130;8.526;2022-09-09T05:29:58;99615.13;;;11.70;79.69
27685;BME280;46113;50.130;8.526;2022-09-09T05:32:29;99616.66;;;11.74;80.44
27685;BME280;46113;50.130;8.526;2022-09-09T05:35:03;99625.38;;;11.76;79.70
27685;BME280;46113;50.130;8.526;2022-09-09T05:37:30;99633.16;;;11.63;81.35
27685;BME280;46113;50.130;8.526;2022-09-09T05:39:57;99628.38;;;11.70;81.39
27685;BME280;46113;50.130;8.526;2022-09-09T05:42:29;99635.38;;;11.71;81.61
27685;BME280;46113;50.130;8.526;2022-09-09T05:44:57;99635.03;;;11.77;81.38
27685;BME280;46113;50.130;8.526;2022-09-09T05:47:24;99646.56;;;11.76;81.67
27685;BME280;46113;50.130;8.526;2022-09-09T05:49:55;99636.75;;;11.78;81.28
27685;BME280;46113;50.130;8.526;2022-09-09T05:52:25;99638.88;;;11.88;81.00
27685;BME280;46113;50.130;8.526;2022-09-09T05:54:54;99648.53;;;11.89;80.59
27685;BME280;46113;50.130;8.526;2022-09-09T05:57:23;99644.16;;;12.04;80.66
27685;BME280;46113;50.130;8.526;2022-09-09T05:59:50;99640.31;;;11.77;81.12
27685;BME280;46113;50.130;8.526;2022-09-09T06:02:16;99650.75;;;11.80;81.48
27685;BME280;46113;50.130;8.526;2022-09-09T06:04:43;99655.31;;;11.78;81.93
27685;BME280;46113;50.130;8.526;2022-09-09T06:07:10;99657.34;;;11.89;81.88
27685;BME280;46113;50.130;8.526;2022-09-09T06:09:37;99653.81;;;12.05;81.06
27685;BME280;46113;50.130;8.526;2022-09-09T06:12:09;99657.44;;;12.04;81.01
27685;BME280;46113;50.130;8.526;2022-09-09T06:14:37;99655.66;;;12.04;81.27
27685;BME280;46113;50.130;8.526;2022-09-09T06:17:08;99656.03;;;12.13;80.39
27685;BME280;46113;50.130;8.526;2022-09-09T06:19:36;99657.69;;;11.99;81.13
27685;BME280;46113;50.130;8.526;2022-09-09T06:22:03;99643.91;;;12.09;81.15
27685;BME280;46113;50.130;8.526;2022-09-09T06:24:33;99647.31;;;11.94;82.02
27685;BME280;46113;50.130;8.526;2022-09-09T06:27:01;99649.41;;;11.57;82.68
27685;BME280;46113;50.130;8.526;2022-09-09T06:29:31;99653.94;;;11.71;83.50
27685;BME280;46113;50.130;8.526;2022-09-09T06:31:59;99649.59;;;11.70;84.24
27685;BME280;46113;50.130;8.526;2022-09-09T06:34:26;99648.06;;;11.50;85.28
27685;BME280;46113;50.130;8.526;2022-09-09T06:36:55;99657.97;;;11.62;84.76
27685;BME280;46113;50.130;8.526;2022-09-09T06:39:24;99660.69;;;11.77;84.65
27685;BME280;46113;50.130;8.526;2022-09-09T06:41:52;99654.28;;;11.81;84.25
27685;BME280;46113;50.130;8.526;2022-09-09T06:44:58;99646.81;;;12.04;83.34
27685;BME280;46113;50.130;8.526;2022-09-09T06:47:36;99651.88;;;11.92;82.90
27685;BME280;46113;50.130;8.526;2022-09-09T06:50:03;99656.56;;;11.87;83.76
27685;BME280;46113;50.130;8.526;2022-09-09T06:52:32;99656.16;;;11.79;84.00
27685;BME280;46113;50.130;8.526;2022-09-09T06:55:02;99656.94;;;11.49;83.83
27685;BME280;46113;50.130;8.526;2022-09-09T06:57:33;99660.63;;;11.78;83.55
27685;BME280;46113;50.130;8.526;2022-09-09T07:00:07;99662.75;;;11.88;82.82
27685;BME280;46113;50.130;8.526;2022-09-09T07:02:34;99662.84;;;11.70;83.35
27685;BME280;46113;50.130;8.526;2022-09-09T07:05:07;99650.09;;;11.93;82.90
27685;BME280;46113;50.130;8.526;2022-09-09T07:07:35;99652.44;;;11.98;82.41
27685;BME280;46113;50.130;8.526;2022-09-09T07:10:03;99654.16;;;11.99;82.18
27685;BME280;46113;50.130;8.526;2022-09-09T07:12:36;99657.84;;;11.96;81.73
27685;BME280;46113;50.130;8.526;2022-09-09T07:15:04;99653.66;;;11.92;81.88
27685;BME280;46113;50.130;8.526;2022-09-09T07:17:34;99657.75;;;11.98;81.63
27685;BME280;46113;50.130;8.526;2022-09-09T07:20:01;99660.50;;;11.96;81.47
27685;BME280;46113;50.130;8.526;2022-09-09T07:22:31;99665.63;;;11.99;81.20
27685;BME280;46113;50.130;8.526;2022-09-09T07:25:04;99661.16;;;12.16;81.78
27685;BME280;46113;50.130;8.526;2022-09-09T07:27:32;99666.31;;;12.19;80.90
27685;BME280;46113;50.130;8.526;2022-09-09T07:29:59;99665.94;;;12.25;80.71
27685;BME280;46113;50.130;8.526;2022-09-09T07:32:26;99660.34;;;12.30;80.23
27685;BME280;46113;50.130;8.526;2022-09-09T07:34:53;99666.72;;;12.42;79.75
27685;BME280;46113;50.130;8.526;2022-09-09T07:37:20;99669.78;;;12.50;79.75
27685;BME280;46113;50.130;8.526;2022-09-09T07:39:47;99665.66;;;12.60;79.68
27685;BME280;46113;50.130;8.526;2022-09-09T07:42:16;99665.25;;;12.67;79.17
27685;BME280;46113;50.130;8.526;2022-09-09T07:44:45;99661.09;;;12.63;78.15
27685;BME280;46113;50.130;8.526;2022-09-09T07:47:15;99670.00;;;12.62;77.91
27685;BME280;46113;50.130;8.526;2022-09-09T07:49:47;99668.97;;;12.79;77.95
27685;BME280;46113;50.130;8.526;2022-09-09T07:52:22;99669.25;;;12.89;78.23
27685;BME280;46113;50.130;8.526;2022-09-09T07:54:54;99678.53;;;12.67;77.54
27685;BME280;46113;50.130;8.526;2022-09-09T07:57:23;99683.59;;;12.71;77.71
27685;BME280;46113;50.130;8.526;2022-09-09T07:59:51;99675.97;;;13.10;77.13
27685;BME280;46113;50.130;8.526;2022-09-09T08:02:19;99688.28;;;13.11;76.44
27685;BME280;46113;50.130;8.526;2022-09-09T08:04:45;99694.50;;;12.96;75.97
27685;BME280;46113;50.130;8.526;2022-09-09T08:07:15;99697.16;;;12.96;75.95
27685;BME280;46113;50.130;8.526;2022-09-09T08:09:48;99699.41;;;12.88;75.90
27685;BME280;46113;50.130;8.526;2022-09-09T08:12:21;99696.88;;;13.00;74.76
27685;BME280;46113;50.130;8.526;2022-09-09T08:14:47;99689.59;;;13.04;74.78
27685;BME280;46113;50.130;8.526;2022-09-09T08:17:15;99690.53;;;13.32;73.98
27685;BME280;46113;50.130;8.526;2022-09-09T08:19:42;99694.81;;;13.20;73.78
27685;BME280;46113;50.130;8.526;2022-09-09T08:22:14;99687.59;;;13.37;73.01
27685;BME280;46113;50.130;8.526;2022-09-09T08:24:44;99683.97;;;13.52;73.24
27685;BME280;46113;50.130;8.526;2022-09-09T08:27:11;99685.31;;;13.87;72.75
27685;BME280;46113;50.130;8.526;2022-09-09T08:29:38;99676.22;;;13.77;71.67
27685;BME280;46113;50.130;8.526;2022-09-09T08:32:06;99691.97;;;13.80;70.69
27685;BME280;46113;50.130;8.526;2022-09-09T08:34:34;99696.50;;;13.92;71.81
27685;BME280;46113;50.130;8.526;2022-09-09T08:37:06;99689.81;;;13.72;71.41
27685;BME280;46113;50.130;8.526;2022-09-09T08:39:37;99697.06;;;13.98;71.09
27685;BME280;46113;50.130;8.526;2022-09-09T08:42:23;99686.38;;;13.85;71.57
27685;BME280;46113;50.130;8.526;2022-09-09T08:45:15;99677.75;;;13.81;70.86
27685;BME280;46113;50.130;8.526;2022-09-09T08:50:36;99671.09;;;13.74;71.00
27685;BME280;46113;50.130;8.526;2022-09-09T08:53:23;99662.88;;;13.91;70.39
27685;BME280;46113;50.130;8.526;2022-09-09T08:55:56;99663.69;;;13.79;70.10
27685;BME280;46113;50.130;8.526;2022-09-09T08:58:53;99666.88;;;13.84;69.91
27685;BME280;46113;50.130;8.526;2022-09-09T09:07:25;99666.06;;;14.11;68.32
27685;BME280;46113;50.130;8.526;2022-09-09T09:13:13;99666.47;;;14.05;66.84
27685;BME280;46113;50.130;8.526;2022-09-09T09:15:42;99661.91;;;14.07;66.03
27685;BME280;46113;50.130;8.526;2022-09-09T09:18:20;99680.63;;;13.91;66.82
27685;BME280;46113;50.130;8.526;2022-09-09T09:23:25;99685.75;;;14.09;66.34
27685;BME280;46113;50.130;8.526;2022-09-09T09:25:59;99676.28;;;14.17;66.91
27685;BME280;46113;50.130;8.526;2022-09-09T09:28:30;99669.59;;;14.25;66.55
27685;BME280;46113;50.130;8.526;2022-09-09T09:31:10;99676.06;;;14.21;66.27
27685;BME280;46113;50.130;8.526;2022-09-09T09:33:53;99672.06;;;14.28;66.04
27685;BME280;46113;50.130;8.526;2022-09-09T09:36:39;99669.88;;;14.48;65.12
27685;BME280;46113;50.130;8.526;2022-09-09T09:39:10;99670.84;;;14.60;64.46
27685;BME280;46113;50.130;8.526;2022-09-09T09:42:09;99665.81;;;14.68;64.67
27685;BME280;46113;50.130;8.526;2022-09-09T09:48:40;99664.81;;;14.02;67.72
27685;BME280;46113;50.130;8.526;2022-09-09T09:51:10;99660.22;;;14.06;69.21
27685;BME280;46113;50.130;8.526;2022-09-09T09:53:38;99664.94;;;14.01;70.05
27685;BME280;46113;50.130;8.526;2022-09-09T09:56:10;99657.44;;;14.21;70.00
27685;BME280;46113;50.130;8.526;2022-09-09T10:01:33;99663.00;;;14.17;70.00
27685;BME280;46113;50.130;8.526;2022-09-09T10:04:22;99691.00;;;13.96;72.21
27685;BME280;46113;50.130;8.526;2022-09-09T10:06:52;99672.66;;;13.91;77.72
27685;BME280;46113;50.130;8.526;2022-09-09T10:09:27;99676.78;;;13.82;78.97
27685;BME280;46113;50.130;8.526;2022-09-09T10:12:18;99665.44;;;13.93;81.26
27685;BME280;46113;50.130;8.526;2022-09-09T10:15:02;99670.88;;;13.91;80.30
27685;BME280;46113;50.130;8.526;2022-09-09T10:17:44;99650.25;;;13.95;80.69
27685;BME280;46113;50.130;8.526;2022-09-09T10:31:51;99654.34;;;13.59;82.06
27685;BME280;46113;50.130;8.526;2022-09-09T10:42:58;99650.19;;;13.82;79.12
27685;BME280;46113;50.130;8.526;2022-09-09T10:51:41;99649.88;;;13.87;76.69
27685;BME280;46113;50.130;8.526;2022-09-09T10:57:14;99646.00;;;15.24;69.54
27685;BME280;46113;50.130;8.526;2022-09-09T10:59:44;99640.88;;;15.83;67.18
27685;BME280;46113;50.130;8.526;2022-09-09T11:02:21;99642.84;;;16.41;63.68
27685;BME280;46113;50.130;8.526;2022-09-09T11:05:00;99636.13;;;17.28;60.57
27685;BME280;46113;50.130;8.526;2022-09-09T11:07:42;99632.91;;;18.01;54.58
27685;BME280;46113;50.130;8.526;2022-09-09T11:12:47;99636.25;;;20.50;48.55
27685;BME280;46113;50.130;8.526;2022-09-09T11:15:23;99622.66;;;19.43;49.24
27685;BME280;46113;50.130;8.526;2022-09-09T11:17:56;99630.06;;;17.82;49.70
27685;BME280;46113;50.130;8.526;2022-09-09T11:20:25;99631.44;;;17.76;52.10
27685;BME280;46113;50.130;8.526;2022-09-09T11:23:00;99622.00;;;17.93;50.01
27685;BME280;46113;50.130;8.526;2022-09-09T11:25:40;99623.44;;;19.14;47.89
27685;BME280;46113;50.130;8.526;2022-09-09T11:31:43;99634.28;;;19.12;43.15
27685;BME280;46113;50.130;8.526;2022-09-09T11:34:44;99621.91;;;19.92;44.31
27685;BME280;46113;50.130;8.526;2022-09-09T11:42:36;99618.16;;;19.53;42.40
27685;BME280;46113;50.130;8.526;2022-09-09T11:45:33;99622.63;;;18.39;46.37
27685;BME280;46113;50.130;8.526;2022-09-09T11:48:22;99618.84;;;17.32;46.42
27685;BME280;46113;50.130;8.526;2022-09-09T11:51:07;99618.13;;;17.42;49.03
27685;BME280;46113;50.130;8.526;2022-09-09T11:53:55;99618.53;;;17.03;49.19
27685;BME280;46113;50.130;8.526;2022-09-09T11:56:32;99634.03;;;16.63;49.64
27685;BME280;46113;50.130;8.526;2022-09-09T11:59:03;99630.78;;;16.71;50.34
27685;BME280;46113;50.130;8.526;2022-09-09T12:01:37;99634.50;;;16.57;49.40
27685;BME280;46113;50.130;8.526;2022-09-09T12:04:27;99629.28;;;16.55;50.11
27685;BME280;46113;50.130;8.526;2022-09-09T12:09:50;99627.19;;;16.36;50.97
27685;BME280;46113;50.130;8.526;2022-09-09T12:12:26;99621.06;;;15.87;51.25
27685;BME280;46113;50.130;8.526;2022-09-09T12:17:31;99627.53;;;16.32;52.00
27685;BME280;46113;50.130;8.526;2022-09-09T12:20:03;99628.13;;;16.24;51.01
27685;BME280;46113;50.130;8.526;2022-09-09T12:30:32;99626.56;;;16.33;51.70
27685;BME280;46113;50.130;8.526;2022-09-09T12:33:11;99630.13;;;16.09;49.86
27685;BME280;46113;50.130;8.526;2022-09-09T12:35:40;99624.41;;;16.02;50.54
27685;BME280;46113;50.130;8.526;2022-09-09T12:38:14;99628.22;;;15.86;52.11
27685;BME280;46113;50.130;8.526;2022-09-09T12:40:42;99648.16;;;14.80;57.26
27685;BME280;46113;50.130;8.526;2022-09-09T12:43:19;99646.13;;;14.04;62.35
27685;BME280;46113;50.130;8.526;2022-09-09T12:45:51;99634.94;;;13.29;67.55
27685;BME280;46113;50.130;8.526;2022-09-09T12:48:44;99625.75;;;12.77;67.45
27685;BME280;46113;50.130;8.526;2022-09-09T12:51:23;99622.72;;;12.83;68.62
27685;BME280;46113;50.130;8.526;2022-09-09T12:53:51;99621.59;;;13.16;70.08
27685;BME280;46113;50.130;8.526;2022-09-09T12:56:20;99628.91;;;13.12;69.08
27685;BME280;46113;50.130;8.526;2022-09-09T12:58:49;99630.75;;;13.39;71.20
27685;BME280;46113;50.130;8.526;2022-09-09T13:01:29;99634.34;;;14.08;72.26
27685;BME280;46113;50.130;8.526;2022-09-09T13:07:18;99630.75;;;16.12;66.81
27685;BME280;46113;50.130;8.526;2022-09-09T13:09:46;99628.28;;;17.71;62.80
27685;BME280;46113;50.130;8.526;2022-09-09T13:12:19;99624.53;;;17.62;58.87
27685;BME280;46113;50.130;8.526;2022-09-09T13:14:51;99626.56;;;18.03;59.02
27685;BME280;46113;50.130;8.526;2022-09-09T13:17:27;99629.78;;;18.60;58.31
27685;BME280;46113;50.130;8.526;2022-09-09T13:23:31;99624.34;;;17.75;55.35
27685;BME280;46113;50.130;8.526;2022-09-09T13:26:02;99620.44;;;18.12;54.06
27685;BME280;46113;50.130;8.526;2022-09-09T13:28:30;99618.63;;;18.12;52.41
27685;BME280;46113;50.130;8.526;2022-09-09T13:31:01;99614.91;;;18.99;52.05
27685;BME280;46113;50.130;8.526;2022-09-09T13:33:31;99613.13;;;20.19;50.42
27685;BME280;46113;50.130;8.526;2022-09-09T13:36:02;99606.19;;;20.27;48.30
27685;BME280;46113;50.130;8.526;2022-09-09T13:38:58;99606.28;;;18.95;48.30
27685;BME280;46113;50.130;8.526;2022-09-09T13:41:26;99612.03;;;18.38;50.16
27685;BME280;46113;50.130;8.526;2022-09-09T13:47:35;99609.34;;;17.95;51.49
27685;BME280;46113;50.130;8.526;2022-09-09T13:50:26;99594.13;;;18.17;50.86
27685;BME280;46113;50.130;8.526;2022-09-09T13:52:55;99601.25;;;18.28;49.68
27685;BME280;46113;50.130;8.526;2022-09-09T13:55:43;99608.72;;;18.46;50.04
27685;BME280;46113;50.130;8.526;2022-09-09T13:58:17;99606.50;;;18.30;50.04
27685;BME280;46113;50.130;8.526;2022-09-09T14:00:53;99619.78;;;17.66;52.17
27685;BME280;46113;50.130;8.526;2022-09-09T14:03:21;99622.19;;;17.69;51.78
27685;BME280;46113;50.130;8.526;2022-09-09T14:05:50;99615.72;;;16.70;54.01
27685;BME280;46113;50.130;8.526;2022-09-09T14:08:26;99618.69;;;16.31;55.28
27685;BME280;46113;50.130;8.526;2022-09-09T14:11:12;99622.13;;;16.09;55.23
27685;BME280;46113;50.130;8.526;2022-09-09T14:16:56;99631.75;;;15.49;55.57
27685;BME280;46113;50.130;8.526;2022-09-09T14:19:23;99633.72;;;15.34;55.05
27685;BME280;46113;50.130;8.526;2022-09-09T14:21:49;99637.56;;;15.68;55.09
27685;BME280;46113;50.130;8.526;2022-09-09T14:24:16;99631.66;;;15.51;55.36
27685;BME280;46113;50.130;8.526;2022-09-09T14:26:45;99648.78;;;15.60;55.31
27685;BME280;46113;50.130;8.526;2022-09-09T14:29:29;99632.94;;;15.08;55.87
27685;BME280;46113;50.130;8.526;2022-09-09T14:31:58;99640.38;;;15.16;56.52
27685;BME280;46113;50.130;8.526;2022-09-09T14:37:46;99631.97;;;14.83;58.27
27685;BME280;46113;50.130;8.526;2022-09-09T14:40:26;99636.22;;;14.47;60.04
27685;BME280;46113;50.130;8.526;2022-09-09T14:42:53;99631.97;;;14.57;61.61
27685;BME280;46113;50.130;8.526;2022-09-09T14:45:23;99625.88;;;14.81;61.31
27685;BME280;46113;50.130;8.526;2022-09-09T14:47:51;99622.06;;;14.98;63.01
27685;BME280;46113;50.130;8.526;2022-09-09T14:50:19;99613.97;;;15.00;63.09
27685;BME280;46113;50.130;8.526;2022-09-09T14:56:15;99603.28;;;16.35;60.86
27685;BME280;46113;50.130;8.526;2022-09-09T14:59:05;99607.63;;;16.24;59.15
27685;BME280;46113;50.130;8.526;2022-09-09T15:01:35;99605.25;;;16.44;59.25
27685;BME280;46113;50.130;8.526;2022-09-09T15:08:20;99597.44;;;17.88;55.68
27685;BME280;46113;50.130;8.526;2022-09-09T15:10:59;99600.59;;;18.14;52.36
27685;BME280;46113;50.130;8.526;2022-09-09T15:13:40;99600.59;;;17.93;52.57
27685;BME280;46113;50.130;8.526;2022-09-09T15:16:13;99610.28;;;17.50;53.76
27685;BME280;46113;50.130;8.526;2022-09-09T15:18:40;99602.47;;;17.26;54.41
27685;BME280;46113;50.130;8.526;2022-09-09T15:21:12;99608.78;;;17.25;55.08
27685;BME280;46113;50.130;8.526;2022-09-09T15:23:39;99607.81;;;16.68;55.93
27685;BME280;46113;50.130;8.526;2022-09-09T15:26:31;99610.34;;;16.59;56.69
27685;BME280;46113;50.130;8.526;2022-09-09T15:29:06;99607.00;;;16.91;56.29
27685;BME280;46113;50.130;8.526;2022-09-09T15:34:58;99610.47;;;16.68;56.75
27685;BME280;46113;50.130;8.526;2022-09-09T15:37:31;99623.53;;;16.01;57.50
27685;BME280;46113;50.130;8.526;2022-09-09T15:39:57;99620.13;;;16.35;57.79
27685;BME280;46113;50.130;8.526;2022-09-09T15:42:55;99616.78;;;15.60;57.91
27685;BME280;46113;50.130;8.526;2022-09-09T15:45:52;99606.84;;;15.37;59.25
27685;BME280;46113;50.130;8.526;2022-09-09T15:48:48;99614.06;;;15.11;59.05
27685;BME280;46113;50.130;8.526;2022-09-09T15:51:50;99621.16;;;15.61;58.93
27685;BME280;46113;50.130;8.526;2022-09-09T15:54:19;99613.31;;;15.09;60.06
27685;BME280;46113;50.130;8.526;2022-09-09T16:00:08;99619.59;;;14.95;60.62
27685;BME280;46113;50.130;8.526;2022-09-09T16:02:41;99626.00;;;15.05;61.12
27685;BME280;46113;50.130;8.526;2022-09-09T16:05:38;99629.41;;;14.81;60.80
27685;BME280;46113;50.130;8.526;2022-09-09T16:08:11;99618.41;;;14.86;60.34
27685;BME280;46113;50.130;8.526;2022-09-09T16:10:37;99618.94;;;14.91;60.42
27685;BME280;46113;50.130;8.526;2022-09-09T16:13:04;99618.63;;;14.96;60.54
27685;BME280;46113;50.130;8.526;2022-09-09T16:15:30;99611.09;;;14.90;62.09
27685;BME280;46113;50.130;8.526;2022-09-09T16:17:57;99605.88;;;14.75;63.07
27685;BME280;46113;50.130;8.526;2022-09-09T16:20:39;99611.94;;;14.77;63.52
27685;BME280;46113;50.130;8.526;2022-09-09T16:23:06;99608.63;;;14.87;63.45
27685;BME280;46113;50.130;8.526;2022-09-09T16:25:34;99616.19;;;14.80;63.48
27685;BME280;46113;50.130;8.526;2022-09-09T16:28:00;99611.72;;;14.80;63.21
27685;BME280;46113;50.130;8.526;2022-09-09T16:30:27;99613.25;;;14.71;63.34
27685;BME280;46113;50.130;8.526;2022-09-09T16:32:53;99615.16;;;14.56;62.90
27685;BME280;46113;50.130;8.526;2022-09-09T16:35:20;99613.00;;;14.75;62.86
27685;BME280;46113;50.130;8.526;2022-09-09T16:37:48;99619.84;;;14.53;62.07
27685;BME280;46113;50.130;8.526;2022-09-09T16:40:21;99616.31;;;14.65;62.10
27685;BME280;46113;50.130;8.526;2022-09-09T16:42:47;99610.44;;;14.60;61.98
27685;BME280;46113;50.130;8.526;2022-09-09T16:45:14;99625.47;;;14.48;61.62
27685;BME280;46113;50.130;8.526;2022-09-09T16:47:40;99632.28;;;14.65;61.50
27685;BME280;46113;50.130;8.526;2022-09-09T16:50:07;99631.84;;;14.58;60.62
27685;BME280;46113;50.130;8.526;2022-09-09T16:52:34;99637.41;;;14.55;61.09
27685;BME280;46113;50.130;8.526;2022-09-09T16:55:00;99644.06;;;14.35;61.07
27685;BME280;46113;50.130;8.526;2022-09-09T16:57:27;99635.34;;;14.33;61.00
27685;BME280;46113;50.130;8.526;2022-09-09T16:59:56;99634.63;;;14.44;60.79
27685;BME280;46113;50.130;8.526;2022-09-09T17:02:25;99639.63;;;14.49;60.37
27685;BME280;46113;50.130;8.526;2022-09-09T17:04:52;99641.41;;;14.35;61.26
27685;BME280;46113;50.130;8.526;2022-09-09T17:07:18;99644.59;;;14.40;61.62
27685;BME280;46113;50.130;8.526;2022-09-09T17:09:45;99651.28;;;14.20;61.73
27685;BME280;46113;50.130;8.526;2022-09-09T17:12:12;99649.84;;;14.42;61.80
27685;BME280;46113;50.130;8.526;2022-09-09T17:14:38;99644.91;;;14.23;63.08
27685;BME280;46113;50.130;8.526;2022-09-09T17:17:05;99650.75;;;14.15;63.33
27685;BME280;46113;50.130;8.526;2022-09-09T17:19:52;99648.53;;;14.22;63.12
27685;BME280;46113;50.130;8.526;2022-09-09T17:22:19;99647.56;;;13.95;63.52
27685;BME280;46113;50.130;8.526;2022-09-09T17:24:46;99646.06;;;13.91;64.00
27685;BME280;46113;50.130;8.526;2022-09-09T17:27:13;99642.75;;;13.87;62.64
27685;BME280;46113;50.130;8.526;2022-09-09T17:32:37;99654.69;;;13.95;62.08
27685;BME280;46113;50.130;8.526;2022-09-09T17:35:05;99659.28;;;13.92;62.38
27685;BME280;46113;50.130;8.526;2022-09-09T17:37:32;99657.53;;;14.06;62.13
27685;BME280;46113;50.130;8.526;2022-09-09T17:40:02;99654.13;;;13.89;62.89
27685;BME280;46113;50.130;8.526;2022-09-09T17:42:29;99661.22;;;13.76;63.41
27685;BME280;46113;50.130;8.526;2022-09-09T17:44:55;99664.63;;;13.78;63.63
27685;BME280;46113;50.130;8.526;2022-09-09T17:47:22;99664.81;;;13.75;63.77
27685;BME280;46113;50.130;8.526;2022-09-09T17:49:48;99659.25;;;13.65;64.78
27685;BME280;46113;50.130;8.526;2022-09-09T17:52:15;99659.28;;;13.50;65.49
27685;BME280;46113;50.130;8.526;2022-09-09T17:54:42;99655.91;;;13.48;65.97
27685;BME280;46113;50.130;8.526;2022-09-09T17:57:10;99656.63;;;13.50;67.65
27685;BME280;46113;50.130;8.526;2022-09-09T17:59:38;99660.56;;;13.45;67.26
27685;BME280;46113;50.130;8.526;2022-09-09T18:02:08;99663.88;;;13.34;67.75
27685;BME280;46113;50.130;8.526;2022-09-09T18:04:35;99665.75;;;13.46;68.45
27685;BME280;46113;50.130;8.526;2022-09-09T18:07:03;99671.66;;;13.37;68.98
27685;BME280;46113;50.130;8.526;2022-09-09T18:09:30;99675.56;;;13.31;69.62
27685;BME280;46113;50.130;8.526;2022-09-09T18:16:42;99697.53;;;12.75;69.41
27685;BME280;46113;50.130;8.526;2022-09-09T18:19:23;99692.97;;;12.77;69.22
27685;BME280;46113;50.130;8.526;2022-09-09T18:21:51;99697.34;;;12.93;69.80
27685;BME280;46113;50.130;8.526;2022-09-09T18:24:20;99695.09;;;12.56;69.72
27685;BME280;46113;50.130;8.526;2022-09-09T18:26:48;99704.97;;;12.54;69.67
27685;BME280;46113;50.130;8.526;2022-09-09T18:29:17;99692.38;;;12.72;69.80
27685;BME280;46113;50.130;8.526;2022-09-09T18:31:46;99704.97;;;12.54;70.18
27685;BME280;46113;50.130;8.526;2022-09-09T18:34:15;99714.38;;;12.59;70.47
27685;BME280;46113;50.130;8.526;2022-09-09T18:36:45;99715.13;;;12.62;70.58
27685;BME280;46113;50.130;8.526;2022-09-09T18:39:14;99718.84;;;12.73;70.06
27685;BME280;46113;50.130;8.526;2022-09-09T18:41:46;99716.31;;;12.56;71.35
27685;BME280;46113;50.130;8.526;2022-09-09T18:44:16;99729.75;;;12.69;71.34
27685;BME280;46113;50.130;8.526;2022-09-09T18:46:43;99726.09;;;12.55;71.93
27685;BME280;46113;50.130;8.526;2022-09-09T18:49:11;99731.81;;;12.64;72.96
27685;BME280;46113;50.130;8.526;2022-09-09T18:51:38;99737.97;;;12.33;74.29
27685;BME280;46113;50.130;8.526;2022-09-09T18:54:10;99732.25;;;12.56;74.26
27685;BME280;46113;50.130;8.526;2022-09-09T18:56:37;99727.25;;;12.35;75.41
27685;BME280;46113;50.130;8.526;2022-09-09T18:59:05;99745.75;;;12.37;75.35
27685;BME280;46113;50.130;8.526;2022-09-09T19:01:33;99743.75;;;12.40;76.12
27685;BME280;46113;50.130;8.526;2022-09-09T19:04:02;99744.56;;;12.10;76.28
27685;BME280;46113;50.130;8.526;2022-09-09T19:06:30;99739.19;;;12.12;76.08
27685;BME280;46113;50.130;8.526;2022-09-09T19:08:57;99744.56;;;12.10;76.60
27685;BME280;46113;50.130;8.526;2022-09-09T19:11:31;99749.34;;;11.87;77.04
27685;BME280;46113;50.130;8.526;2022-09-09T19:14:00;99766.75;;;11.59;77.72
27685;BME280;46113;50.130;8.526;2022-09-09T19:16:29;99762.50;;;11.73;78.04
27685;BME280;46113;50.130;8.526;2022-09-09T19:19:04;99766.34;;;11.67;78.33
27685;BME280;46113;50.130;8.526;2022-09-09T19:21:41;99775.50;;;11.27;79.12
27685;BME280;46113;50.130;8.526;2022-09-09T19:24:17;99769.03;;;11.33;79.45
27685;BME280;46113;50.130;8.526;2022-09-09T19:26:50;99771.84;;;11.30;79.60
27685;BME280;46113;50.130;8.526;2022-09-09T19:29:22;99767.31;;;11.32;79.70
27685;BME280;46113;50.130;8.526;2022-09-09T19:31:51;99775.94;;;11.02;80.66
27685;BME280;46113;50.130;8.526;2022-09-09T19:34:38;99777.00;;;11.16;80.54